createdAt,value
2019-05-12T00:01:28.833Z,0.30
2019-05-12T00:03:58.696Z,0.20
2019-05-12T00:06:28.632Z,0.30
2019-05-12T00:08:58.515Z,0.30
2019-05-12T00:11:28.860Z,0.30
2019-05-12T00:13:58.922Z,0.30
2019-05-12T00:16:28.829Z,0.20
2019-05-12T00:18:58.791Z,0.40
2019-05-12T00:21:28.817Z,0.40
2019-05-12T00:24:13.772Z,0.20
2019-05-12T00:26:43.863Z,0.30
2019-05-12T00:29:13.717Z,0.30
2019-05-12T00:31:43.598Z,0.30
2019-05-12T00:34:13.519Z,0.40
2019-05-12T00:36:43.420Z,0.30
2019-05-12T00:39:13.242Z,0.40
2019-05-12T00:41:44.564Z,0.23
2019-05-12T00:44:14.680Z,0.30
2019-05-12T00:46:44.513Z,0.37
2019-05-12T00:49:14.369Z,0.30
2019-05-12T00:51:44.225Z,0.30
2019-05-12T00:54:14.036Z,0.37
2019-05-12T00:56:43.880Z,0.40
2019-05-12T00:59:13.642Z,0.30
2019-05-12T01:01:43.619Z,0.20
2019-05-12T01:04:13.537Z,0.30
2019-05-12T01:06:43.358Z,0.37
2019-05-12T01:09:13.183Z,0.30
2019-05-12T01:11:43.086Z,0.40
2019-05-12T01:14:12.943Z,0.30
2019-05-12T01:16:42.778Z,0.47
2019-05-12T01:19:12.694Z,0.30
2019-05-12T01:21:42.508Z,0.50
2019-05-12T01:24:12.347Z,0.70
2019-05-12T01:26:42.266Z,0.50
2019-05-12T01:29:12.061Z,0.60
2019-05-12T01:31:48.883Z,0.50
2019-05-12T01:34:18.699Z,0.40
2019-05-12T01:36:48.522Z,0.50
2019-05-12T01:39:18.849Z,0.47
2019-05-12T01:41:48.906Z,0.30
2019-05-12T01:44:18.785Z,0.20
2019-05-12T01:46:48.616Z,0.30
2019-05-12T01:49:18.812Z,0.30
2019-05-12T01:51:48.790Z,0.47
2019-05-12T01:54:18.978Z,0.30
2019-05-12T01:56:48.928Z,0.30
2019-05-12T01:59:18.819Z,0.33
2019-05-12T02:01:48.829Z,0.30
2019-05-12T02:04:18.931Z,0.30
2019-05-12T02:06:48.705Z,0.20
2019-05-12T02:09:20.550Z,0.30
2019-05-12T02:11:50.377Z,0.30
2019-05-12T02:14:20.226Z,0.27
2019-05-12T02:16:50.032Z,0.30
2019-05-12T02:19:19.904Z,0.30
2019-05-12T02:21:49.673Z,0.40
2019-05-12T02:24:26.545Z,0.40
2019-05-12T02:26:50.977Z,0.20
2019-05-12T02:29:20.819Z,0.30
2019-05-12T02:31:50.696Z,0.40
2019-05-12T02:34:20.518Z,0.20
2019-05-12T02:36:50.387Z,0.27
2019-05-12T02:39:20.314Z,0.30
2019-05-12T02:41:50.152Z,0.30
2019-05-12T02:44:20.022Z,0.40
2019-05-12T02:46:49.892Z,0.20
2019-05-12T02:49:19.821Z,0.20
2019-05-12T02:51:50.403Z,0.20
2019-05-12T02:54:24.967Z,0.30
2019-05-12T02:56:55.162Z,0.20
2019-05-12T02:59:25.742Z,0.20
2019-05-12T03:01:56.882Z,0.20
2019-05-12T03:04:27.557Z,0.30
2019-05-12T03:07:02.037Z,0.20
2019-05-12T03:09:34.946Z,0.30
2019-05-12T03:12:05.964Z,0.33
2019-05-12T03:14:40.216Z,0.30
2019-05-12T03:17:06.582Z,0.20
2019-05-12T03:19:36.476Z,0.30
2019-05-12T03:22:06.279Z,0.30
2019-05-12T03:24:36.138Z,0.20
2019-05-12T03:27:06.040Z,0.20
2019-05-12T03:29:35.856Z,0.30
2019-05-12T03:32:08.381Z,0.30
2019-05-12T03:34:38.685Z,0.30
2019-05-12T03:37:09.202Z,0.30
2019-05-12T03:39:39.106Z,0.27
2019-05-12T03:42:08.967Z,0.30
2019-05-12T03:44:38.790Z,0.30
2019-05-12T03:47:08.621Z,0.20
2019-05-12T03:49:38.512Z,0.23
2019-05-12T03:52:08.489Z,0.20
2019-05-12T03:54:38.364Z,0.30
2019-05-12T03:57:08.162Z,0.20
2019-05-12T03:59:37.944Z,0.20
2019-05-12T04:02:07.782Z,0.30
2019-05-12T04:04:37.647Z,0.20
2019-05-12T04:07:07.581Z,0.20
2019-05-12T04:09:37.428Z,0.20
2019-05-12T04:12:07.337Z,0.20
2019-05-12T04:14:37.212Z,0.23
2019-05-12T04:17:07.210Z,0.23
2019-05-12T04:19:37.134Z,0.27
2019-05-12T04:22:06.979Z,0.37
2019-05-12T04:24:36.841Z,0.40
2019-05-12T04:27:06.682Z,0.30
2019-05-12T04:29:36.584Z,0.30
2019-05-12T04:32:06.448Z,0.33
2019-05-12T04:34:36.371Z,0.40
2019-05-12T04:37:06.248Z,0.30
2019-05-12T04:39:36.432Z,0.60
2019-05-12T04:42:06.284Z,0.40
2019-05-12T04:44:36.075Z,0.40
2019-05-12T04:47:06.047Z,0.60
2019-05-12T04:49:35.865Z,0.50
2019-05-12T04:52:05.899Z,0.70
2019-05-12T04:54:35.819Z,0.90
2019-05-12T04:57:05.596Z,1.13
2019-05-12T04:59:35.413Z,1.17
2019-05-12T05:02:05.699Z,1.40
2019-05-12T05:04:35.743Z,1.57
2019-05-12T05:07:05.660Z,1.60
2019-05-12T05:09:35.507Z,1.43
2019-05-12T05:12:05.430Z,1.70
2019-05-12T05:14:35.230Z,1.30
2019-05-12T05:17:05.768Z,1.00
2019-05-12T05:19:36.051Z,1.07
2019-05-12T05:22:05.916Z,0.80
2019-05-12T05:24:35.763Z,0.60
2019-05-12T05:27:05.652Z,0.50
2019-05-12T05:29:37.280Z,0.40
2019-05-12T05:32:06.938Z,0.40
2019-05-12T05:34:36.870Z,0.40
2019-05-12T05:37:06.795Z,0.30
2019-05-12T05:39:47.609Z,0.40
2019-05-12T05:42:08.239Z,0.30
2019-05-12T05:44:38.207Z,0.30
2019-05-12T05:47:08.141Z,0.40
2019-05-12T05:49:37.950Z,0.40
2019-05-12T05:52:07.914Z,0.60
2019-05-12T05:54:40.004Z,0.30
2019-05-12T05:57:09.194Z,0.40
2019-05-12T05:59:39.047Z,0.40
2019-05-12T06:02:08.863Z,0.50
2019-05-12T06:04:39.114Z,0.40
2019-05-12T06:07:10.222Z,0.50
2019-05-12T06:09:40.122Z,0.50
2019-05-12T06:12:10.205Z,0.60
2019-05-12T06:14:40.980Z,0.67
2019-05-12T06:17:11.006Z,0.90
2019-05-12T06:19:40.841Z,1.40
2019-05-12T06:22:15.314Z,1.70
2019-05-12T06:24:44.105Z,1.93
2019-05-12T06:27:19.373Z,2.00
2019-05-12T06:29:45.136Z,2.00
2019-05-12T06:32:14.913Z,2.00
2019-05-12T06:34:44.855Z,1.80
2019-05-12T06:37:17.131Z,1.50
2019-05-12T06:39:51.017Z,1.17
2019-05-12T06:42:18.035Z,1.13
2019-05-12T06:44:48.968Z,0.93
2019-05-12T06:47:18.751Z,0.80
2019-05-12T06:49:53.365Z,0.87
2019-05-12T06:52:20.143Z,0.80
2019-05-12T06:54:55.388Z,0.80
2019-05-12T06:57:27.858Z,0.57
2019-05-12T06:59:55.062Z,0.50
2019-05-12T07:02:24.643Z,0.60
2019-05-12T07:04:59.393Z,0.43
2019-05-12T07:07:27.720Z,0.70
2019-05-12T07:10:09.365Z,0.40
2019-05-12T07:12:36.704Z,0.30
2019-05-12T07:15:00.460Z,0.40
2019-05-12T07:17:49.605Z,0.37
2019-05-12T07:20:16.369Z,0.60
2019-05-12T07:22:48.650Z,0.50
2019-05-12T07:25:22.853Z,0.57
2019-05-12T07:27:54.975Z,0.60
2019-05-12T07:30:31.729Z,0.83
2019-05-12T07:33:01.382Z,0.80
2019-05-12T07:35:33.764Z,0.83
2019-05-12T07:38:04.873Z,0.57
2019-05-12T07:40:37.687Z,0.90
2019-05-12T07:43:10.093Z,1.00
2019-05-12T07:45:39.589Z,0.60
2019-05-12T07:48:10.446Z,0.50
2019-05-12T07:50:40.674Z,0.70
2019-05-12T07:53:10.514Z,0.40
2019-05-12T07:55:47.475Z,0.50
2019-05-12T07:58:17.722Z,0.60
2019-05-12T08:00:44.297Z,0.50
2019-05-12T08:03:20.725Z,0.63
2019-05-12T08:05:46.024Z,0.50
2019-05-12T08:08:15.854Z,0.60
2019-05-12T08:10:51.227Z,0.50
2019-05-12T08:13:18.761Z,0.50
2019-05-12T08:15:51.312Z,0.43
2019-05-12T08:18:20.332Z,0.60
2019-05-12T08:20:50.235Z,0.50
2019-05-12T08:23:19.997Z,0.50
2019-05-12T08:25:49.878Z,0.50
2019-05-12T08:28:28.124Z,0.40
2019-05-12T08:30:54.324Z,0.60
2019-05-12T08:33:23.904Z,0.50
2019-05-12T08:35:55.360Z,2.00
2019-05-12T08:38:25.328Z,1.50
2019-05-12T08:40:55.155Z,2.17
2019-05-12T08:43:25.128Z,4.20
2019-05-12T08:45:54.970Z,3.00
2019-05-12T08:48:25.281Z,1.53
2019-05-12T08:50:55.226Z,1.20
2019-05-12T08:53:26.134Z,2.13
2019-05-12T08:55:56.343Z,3.60
2019-05-12T08:58:33.469Z,1.60
2019-05-12T09:00:57.770Z,0.97
2019-05-12T09:03:30.404Z,0.70
2019-05-12T09:05:59.148Z,0.60
2019-05-12T09:08:30.051Z,0.80
2019-05-12T09:10:59.913Z,1.10
2019-05-12T09:13:29.762Z,0.90
2019-05-12T09:15:59.576Z,1.17
2019-05-12T09:18:35.266Z,1.03
2019-05-12T09:21:03.579Z,1.10
2019-05-12T09:23:40.781Z,1.30
2019-05-12T09:26:04.216Z,0.97
2019-05-12T09:28:46.784Z,1.00
2019-05-12T09:31:05.843Z,1.40
2019-05-12T09:33:36.057Z,1.00
2019-05-12T09:36:05.977Z,1.40
2019-05-12T09:38:35.790Z,0.87
2019-05-12T09:41:05.612Z,1.60
2019-05-12T09:43:40.291Z,1.77
2019-05-12T09:46:07.131Z,2.10
2019-05-12T09:48:39.068Z,1.60
2019-05-12T09:51:08.426Z,1.60
2019-05-12T09:53:42.752Z,1.33
2019-05-12T09:56:09.685Z,1.20
2019-05-12T09:58:39.505Z,1.57
2019-05-12T10:01:09.459Z,1.60
2019-05-12T10:03:40.148Z,1.50
2019-05-12T10:06:11.474Z,1.50
2019-05-12T10:08:43.432Z,1.47
2019-05-12T10:11:16.682Z,1.70
2019-05-12T10:13:44.958Z,1.20
2019-05-12T10:16:14.885Z,1.30
2019-05-12T10:18:51.402Z,1.60
2019-05-12T10:21:17.591Z,1.87
2019-05-12T10:23:51.652Z,1.63
2019-05-12T10:26:19.405Z,1.10
2019-05-12T10:28:57.877Z,1.20
2019-05-12T10:31:20.952Z,1.20
2019-05-12T10:33:55.053Z,1.60
2019-05-12T10:36:22.446Z,1.63
2019-05-12T10:38:53.831Z,1.30
2019-05-12T10:41:23.791Z,4.60
2019-05-12T10:43:57.559Z,3.90
2019-05-12T10:46:28.623Z,6.67
2019-05-12T10:48:56.599Z,7.33
2019-05-12T10:51:26.509Z,12.20
2019-05-12T10:54:05.579Z,14.33
2019-05-12T10:56:28.056Z,17.27
2019-05-12T10:58:57.954Z,22.27
2019-05-12T11:01:27.845Z,6.57
2019-05-12T11:03:57.575Z,2.47
2019-05-12T11:06:27.434Z,1.90
2019-05-12T11:08:57.308Z,1.33
2019-05-12T11:11:27.135Z,1.73
2019-05-12T11:13:56.964Z,1.50
2019-05-12T11:16:30.797Z,12.07
2019-05-12T11:19:00.325Z,17.53
2019-05-12T11:21:29.866Z,8.57
2019-05-12T11:23:59.751Z,12.23
2019-05-12T11:26:29.573Z,11.07
2019-05-12T11:28:59.426Z,4.37
2019-05-12T11:31:29.308Z,4.07
2019-05-12T11:33:59.934Z,4.73
2019-05-12T11:36:29.915Z,6.57
2019-05-12T11:38:59.734Z,14.97
2019-05-12T11:41:29.564Z,5.40
2019-05-12T11:43:59.394Z,2.30
2019-05-12T11:46:29.370Z,1.97
2019-05-12T11:49:00.319Z,2.23
2019-05-12T11:51:30.675Z,1.97
2019-05-12T11:54:03.399Z,1.73
2019-05-12T11:56:46.579Z,1.73
2019-05-12T11:59:13.824Z,3.00
2019-05-12T12:01:48.080Z,2.37
2019-05-12T12:04:16.091Z,2.20
2019-05-12T12:06:46.188Z,1.30
2019-05-12T12:09:18.884Z,1.40
2019-05-12T12:11:47.519Z,0.93
2019-05-12T12:14:17.419Z,0.97
2019-05-12T12:16:50.404Z,1.20
2019-05-12T12:19:19.747Z,1.20
2019-05-12T12:21:50.151Z,1.27
2019-05-12T12:24:21.247Z,0.83
2019-05-12T12:26:53.627Z,1.20
2019-05-12T12:29:24.063Z,1.17
2019-05-12T12:31:55.031Z,1.33
2019-05-12T12:34:29.856Z,1.00
2019-05-12T12:36:56.547Z,1.00
2019-05-12T12:39:26.356Z,1.20
2019-05-12T12:42:00.419Z,1.20
2019-05-12T12:44:27.870Z,1.40
2019-05-12T12:47:00.135Z,1.30
2019-05-12T12:49:29.590Z,1.10
2019-05-12T12:51:59.578Z,1.20
2019-05-12T12:54:29.928Z,0.80
2019-05-12T12:57:00.132Z,0.80
2019-05-12T12:59:33.254Z,0.80
2019-05-12T13:02:05.806Z,0.80
2019-05-12T13:04:39.386Z,0.70
2019-05-12T13:07:06.554Z,1.20
2019-05-12T13:09:36.454Z,0.50
2019-05-12T13:12:14.305Z,0.60
2019-05-12T13:14:38.453Z,0.70
2019-05-12T13:17:08.520Z,0.70
2019-05-12T13:19:38.423Z,0.60
2019-05-12T13:22:08.920Z,0.90
2019-05-12T13:24:39.808Z,0.93
2019-05-12T13:27:09.697Z,0.80
2019-05-12T13:29:40.560Z,0.83
2019-05-12T13:32:10.422Z,0.80
2019-05-12T13:34:40.207Z,0.70
2019-05-12T13:37:15.588Z,0.80
2019-05-12T13:39:54.678Z,0.70
2019-05-12T13:42:13.671Z,0.97
2019-05-12T13:44:43.715Z,0.57
2019-05-12T13:47:14.146Z,0.50
2019-05-12T13:49:47.309Z,0.67
2019-05-12T13:52:20.084Z,1.10
2019-05-12T13:54:46.990Z,1.40
2019-05-12T13:57:16.801Z,2.37
2019-05-12T13:59:46.707Z,3.17
2019-05-12T14:02:22.078Z,1.90
2019-05-12T14:04:48.119Z,1.00
2019-05-12T14:07:20.039Z,1.80
2019-05-12T14:09:49.499Z,2.00
2019-05-12T14:12:19.440Z,2.50
2019-05-12T14:14:49.295Z,2.00
2019-05-12T14:17:19.130Z,1.73
2019-05-12T14:19:49.007Z,2.50
2019-05-12T14:22:26.215Z,1.97
2019-05-12T14:24:50.379Z,1.63
2019-05-12T14:27:27.043Z,0.90
2019-05-12T14:29:53.746Z,1.00
2019-05-12T14:32:24.040Z,0.97
2019-05-12T14:34:59.351Z,1.10
2019-05-12T14:37:25.614Z,1.20
2019-05-12T14:39:55.421Z,1.00
2019-05-12T14:42:25.977Z,1.00
2019-05-12T14:44:56.749Z,0.70
2019-05-12T14:47:30.128Z,0.70
2019-05-12T14:49:58.182Z,0.50
2019-05-12T14:52:27.902Z,0.40
2019-05-12T14:54:57.798Z,0.40
2019-05-12T14:57:29.483Z,0.90
2019-05-12T14:59:59.111Z,0.50
2019-05-12T15:02:29.620Z,0.60
2019-05-12T15:05:00.280Z,0.47
2019-05-12T15:07:31.102Z,0.40
2019-05-12T15:10:03.715Z,0.53
2019-05-12T15:12:33.557Z,0.50
2019-05-12T15:15:03.822Z,0.50
2019-05-12T15:17:33.925Z,0.40
2019-05-12T15:20:06.606Z,0.50
2019-05-12T15:22:35.214Z,0.60
2019-05-12T15:25:05.595Z,0.40
2019-05-12T15:27:44.328Z,0.40
2019-05-12T15:30:19.004Z,0.40
2019-05-12T15:32:39.587Z,0.50
2019-05-12T15:35:09.642Z,0.50
2019-05-12T15:37:39.423Z,0.30
2019-05-12T15:40:10.339Z,0.60
2019-05-12T15:42:40.210Z,0.60
2019-05-12T15:45:14.510Z,0.60
2019-05-12T15:47:44.293Z,0.50
2019-05-12T15:50:14.725Z,0.60
2019-05-12T15:52:45.883Z,0.60
2019-05-12T15:55:18.224Z,0.50
2019-05-12T15:57:47.634Z,0.50
2019-05-12T16:00:17.539Z,0.50
2019-05-12T16:02:47.373Z,0.60
2019-05-12T16:05:20.123Z,0.50
2019-05-12T16:07:48.954Z,0.50
2019-05-12T16:10:18.836Z,0.60
2019-05-12T16:12:48.792Z,0.60
2019-05-12T16:15:19.413Z,0.60
2019-05-12T16:17:49.507Z,0.70
2019-05-12T16:20:19.699Z,0.67
2019-05-12T16:22:49.596Z,0.70
2019-05-12T16:25:20.537Z,0.63
2019-05-12T16:27:51.336Z,0.60
2019-05-12T16:30:25.950Z,0.57
2019-05-12T16:32:55.038Z,0.60
2019-05-12T16:35:26.645Z,0.70
2019-05-12T16:37:55.928Z,0.60
2019-05-12T16:40:25.787Z,0.60
2019-05-12T16:42:59.747Z,0.50
2019-05-12T16:45:27.250Z,0.90
2019-05-12T16:47:59.401Z,1.30
2019-05-12T16:50:28.607Z,1.40
2019-05-12T16:52:58.419Z,0.60
2019-05-12T16:55:28.212Z,0.70
2019-05-12T16:57:58.105Z,1.00
2019-05-12T17:00:30.854Z,1.00
2019-05-12T17:02:59.454Z,1.07
2019-05-12T17:05:29.402Z,1.30
2019-05-12T17:07:59.279Z,0.70
2019-05-12T17:10:29.170Z,0.90
2019-05-12T17:12:58.952Z,0.77
2019-05-12T17:15:28.822Z,0.80
2019-05-12T17:18:01.470Z,0.67
2019-05-12T17:20:30.172Z,0.70
2019-05-12T17:23:00.508Z,0.70
2019-05-12T17:25:30.449Z,0.70
2019-05-12T17:28:03.781Z,0.80
2019-05-12T17:30:31.783Z,0.80
2019-05-12T17:33:04.550Z,0.80
2019-05-12T17:35:34.953Z,0.80
2019-05-12T17:38:04.655Z,0.90
2019-05-12T17:40:34.644Z,0.80
2019-05-12T17:43:11.310Z,0.70
2019-05-12T17:45:36.006Z,1.20
2019-05-12T17:48:07.697Z,0.80
2019-05-12T17:50:40.323Z,0.93
2019-05-12T17:53:08.855Z,0.83
2019-05-12T17:55:42.712Z,0.80
2019-05-12T17:58:10.252Z,0.70
2019-05-12T18:00:41.397Z,0.70
2019-05-12T18:03:21.585Z,0.80
2019-05-12T18:05:48.413Z,0.83
2019-05-12T18:08:14.809Z,0.60
2019-05-12T18:10:47.712Z,0.60
2019-05-12T18:13:23.002Z,0.70
2019-05-12T18:15:48.240Z,0.60
2019-05-12T18:18:24.174Z,0.80
2019-05-12T18:20:49.669Z,0.90
2019-05-12T18:23:19.907Z,0.80
2019-05-12T18:25:51.024Z,0.83
2019-05-12T18:28:21.589Z,0.50
2019-05-12T18:30:53.851Z,0.67
2019-05-12T18:33:33.352Z,0.60
2019-05-12T18:35:55.291Z,0.70
2019-05-12T18:38:26.666Z,0.60
2019-05-12T18:40:56.725Z,0.70
2019-05-12T18:43:26.518Z,0.63
2019-05-12T18:46:04.782Z,0.73
2019-05-12T18:48:27.870Z,0.60
2019-05-12T18:51:04.921Z,0.73
2019-05-12T18:53:31.865Z,0.60
2019-05-12T18:56:00.589Z,0.50
2019-05-12T18:58:32.478Z,0.60
2019-05-12T19:01:03.420Z,0.50
2019-05-12T19:03:46.859Z,0.53
2019-05-12T19:06:05.159Z,0.40
2019-05-12T19:08:35.146Z,0.50
2019-05-12T19:11:18.892Z,0.50
2019-05-12T19:13:36.606Z,0.50
2019-05-12T19:16:07.512Z,0.60
2019-05-12T19:18:37.870Z,0.63
2019-05-12T19:21:10.181Z,0.60
2019-05-12T19:23:39.391Z,0.43
2019-05-12T19:26:09.257Z,0.60
2019-05-12T19:28:44.372Z,0.50
2019-05-12T19:31:10.949Z,0.50
2019-05-12T19:33:44.025Z,0.60
2019-05-12T19:36:13.623Z,0.50
2019-05-12T19:38:43.969Z,0.70
2019-05-12T19:41:14.160Z,0.50
2019-05-12T19:43:45.416Z,0.60
2019-05-12T19:46:15.617Z,0.63
2019-05-12T19:48:49.660Z,0.57
2019-05-12T19:51:24.556Z,0.50
2019-05-12T19:53:48.602Z,0.60
2019-05-12T19:56:18.976Z,0.70
2019-05-12T19:58:49.074Z,0.50
2019-05-12T20:01:26.073Z,0.50
2019-05-12T20:03:55.684Z,0.57
2019-05-12T20:06:24.294Z,0.60
2019-05-12T20:09:05.426Z,0.60
2019-05-12T20:11:29.343Z,0.50
2019-05-12T20:13:56.629Z,0.57
2019-05-12T20:16:30.216Z,0.50
2019-05-12T20:18:58.112Z,0.50
2019-05-12T20:21:28.490Z,0.70
2019-05-12T20:23:58.584Z,0.60
2019-05-12T20:26:33.235Z,0.60
2019-05-12T20:28:59.879Z,0.67
2019-05-12T20:31:29.701Z,0.60
2019-05-12T20:34:04.536Z,0.73
2019-05-12T20:36:33.150Z,0.40
2019-05-12T20:39:09.428Z,0.50
2019-05-12T20:41:34.318Z,0.50
2019-05-12T20:44:10.032Z,0.50
2019-05-12T20:46:36.391Z,0.40
2019-05-12T20:49:10.632Z,0.47
2019-05-12T20:51:37.634Z,0.50
2019-05-12T20:54:14.023Z,0.50
2019-05-12T20:56:39.006Z,0.60
2019-05-12T20:59:13.852Z,0.40
2019-05-12T21:01:40.368Z,0.53
2019-05-12T21:04:10.253Z,0.60
2019-05-12T21:06:43.054Z,0.40
2019-05-12T21:09:14.176Z,0.60
2019-05-12T21:11:44.227Z,0.53
2019-05-12T21:14:14.775Z,0.57
2019-05-12T21:16:45.061Z,0.50
2019-05-12T21:19:15.102Z,0.40
2019-05-12T21:21:45.015Z,0.50
2019-05-12T21:24:15.010Z,0.50
2019-05-12T21:26:44.841Z,0.40
2019-05-12T21:29:19.020Z,0.40
2019-05-12T21:31:46.319Z,0.40
2019-05-12T21:34:21.521Z,0.50
2019-05-12T21:36:47.668Z,0.50
2019-05-12T21:39:17.847Z,0.40
2019-05-12T21:41:52.021Z,0.40
2019-05-12T21:44:19.502Z,0.50
2019-05-12T21:46:59.452Z,0.43
2019-05-12T21:49:20.788Z,0.40
2019-05-12T21:51:56.083Z,0.40
2019-05-12T21:54:24.045Z,0.50
2019-05-12T21:56:54.267Z,0.50
2019-05-12T21:59:28.856Z,0.40
2019-05-12T22:01:56.190Z,0.50
2019-05-12T22:04:26.014Z,0.50
2019-05-12T22:06:57.153Z,0.37
2019-05-12T22:09:32.298Z,0.40
2019-05-12T22:11:59.068Z,0.40
2019-05-12T22:14:30.326Z,0.30
2019-05-12T22:17:02.056Z,0.40
2019-05-12T22:19:37.720Z,0.40
2019-05-12T22:22:04.367Z,0.43
2019-05-12T22:24:38.673Z,0.40
2019-05-12T22:27:05.910Z,0.40
2019-05-12T22:29:35.812Z,0.40
2019-05-12T22:32:05.667Z,0.30
2019-05-12T22:34:41.656Z,0.30
2019-05-12T22:37:07.007Z,0.33
2019-05-12T22:39:36.796Z,0.50
2019-05-12T22:42:11.515Z,0.30
2019-05-12T22:44:38.193Z,0.50
2019-05-12T22:47:13.010Z,0.40
2019-05-12T22:49:39.545Z,0.47
2019-05-12T22:52:09.438Z,0.40
2019-05-12T22:54:40.468Z,0.40
2019-05-12T22:57:10.730Z,0.50
2019-05-12T22:59:42.691Z,0.40
2019-05-12T23:02:15.963Z,0.40
2019-05-12T23:04:44.121Z,0.50
2019-05-12T23:07:19.053Z,0.30
2019-05-12T23:09:45.339Z,0.43
2019-05-12T23:12:19.901Z,0.40
2019-05-12T23:14:46.791Z,0.40
2019-05-12T23:17:16.926Z,0.40
2019-05-12T23:19:51.565Z,0.50
2019-05-12T23:22:18.315Z,0.30
2019-05-12T23:24:48.200Z,0.30
2019-05-12T23:27:18.885Z,0.40
2019-05-12T23:29:49.520Z,0.40
2019-05-12T23:32:19.382Z,0.40
2019-05-12T23:34:56.625Z,0.30
2019-05-12T23:37:20.711Z,0.50
2019-05-12T23:39:50.535Z,0.43
2019-05-12T23:42:20.379Z,0.40
2019-05-12T23:44:50.194Z,0.40
2019-05-12T23:47:20.254Z,0.30
2019-05-12T23:49:50.010Z,0.40
2019-05-12T23:52:19.794Z,0.40
2019-05-12T23:54:49.687Z,0.40
2019-05-12T23:57:19.526Z,0.50
2019-05-12T23:59:49.351Z,0.30
